Etusivu
METAR-TAF:

METAR-TAF

Lentoasemat :

Chesterfield Inletin lentoasema

Chesterfield Inlet, Nunavut, Kanada

Leveyspiiri: 63-20N, Pituuspiiri: 090-43W, korkeus merenpinnasta: 11 m

Tämänhetkinen sää

Tämä raportti tehtiin 15 tuntia ja 3 minuuttia sitten, kello 19.00 UTC
Tuuli 10 kn luoteesta
Lämpötila -16°C
Kosteus 60%
Ilmanpaine 1044 hPa
Näkyvyys: 24.1 km
Muutamia pilviä 15000 ft:n korkeudessa

METAR: CYCS 131900Z 31010KT 15SM FEW150 M16/M22 A3083 RMK AS2 LAST STFD OBS/ NXT 141200 SLP443

Aika: 05:03 (10:03 UTC)


TAF: puuttuu

Säähavainnot ja -ennusteet yli 4000 lentoasemalta (METAR- ja TAF-raportit).

Käytössä olevat sääasemat on merkitty karttaan keltaisilla ja punaisilla pisteillä.

Aseta hiiri pisteen päälle nähdäksesi sääaseman nimen.

Klikkaa sitten nähdäksesi säähavainnot ja -ennusteet.

Kartan vaihtaminen: klikkaa mustalla rastilla varustettuja vihreitä pisteitä, niin voit zoomata sisään; viivalla varustettua vihreää pistettä, niin voit zoomata ulos tai vihreitä nuolia, niin pääset viereisille kartoille.


METAR-TAF: